createdAt,value
2023-03-30T00:00:03.514Z,76.63
2023-03-30T00:01:03.752Z,76.93
2023-03-30T00:02:03.497Z,76.73
2023-03-30T00:03:03.715Z,76.12
2023-03-30T00:04:03.771Z,76.43
2023-03-30T00:05:03.625Z,75.92
2023-03-30T00:06:03.434Z,75.82
2023-03-30T00:07:03.404Z,75.48
2023-03-30T00:08:03.403Z,75.68
2023-03-30T00:09:03.375Z,75.68
2023-03-30T00:10:03.365Z,75.71
2023-03-30T00:11:03.587Z,75.82
2023-03-30T00:12:03.347Z,76.22
2023-03-30T00:13:03.338Z,76.12
2023-03-30T00:14:03.311Z,76.22
2023-03-30T00:15:03.301Z,76.43
2023-03-30T00:16:03.340Z,76.84
2023-03-30T00:17:03.282Z,76.53
2023-03-30T00:18:03.291Z,76.32
2023-03-30T00:19:03.243Z,76.32
2023-03-30T00:20:03.321Z,75.82
2023-03-30T00:21:03.507Z,75.82
2023-03-30T00:22:03.212Z,75.41
2023-03-30T00:23:03.206Z,75.07
2023-03-30T00:24:03.186Z,75.27
2023-03-30T00:25:03.173Z,75.16
2023-03-30T00:26:03.171Z,75.37
2023-03-30T00:27:03.172Z,75.16
2023-03-30T00:28:03.151Z,75.68
2023-03-30T00:29:03.129Z,75.78
2023-03-30T00:30:03.113Z,75.78
2023-03-30T00:31:03.343Z,75.68
2023-03-30T00:32:03.116Z,76.02
2023-03-30T00:33:03.145Z,76.43
2023-03-30T00:34:03.066Z,76.12
2023-03-30T00:35:03.035Z,76.22
2023-03-30T00:36:03.087Z,76.43
2023-03-30T00:37:03.010Z,77.25
2023-03-30T00:38:03.007Z,77.65
2023-03-30T00:39:02.999Z,77.59
2023-03-30T00:40:02.998Z,77.69
2023-03-30T00:41:03.256Z,77.48
2023-03-30T00:42:02.955Z,77.89
2023-03-30T00:43:02.949Z,78.09
2023-03-30T00:44:02.920Z,78.30
2023-03-30T00:45:02.908Z,78.34
2023-03-30T00:46:02.976Z,78.44
2023-03-30T00:47:02.895Z,78.64
2023-03-30T00:48:02.933Z,78.75
2023-03-30T00:49:02.861Z,78.54
2023-03-30T00:50:02.862Z,78.54
2023-03-30T00:51:03.206Z,78.44
2023-03-30T00:52:02.890Z,78.34
2023-03-30T00:53:02.798Z,79.05
2023-03-30T00:54:02.813Z,78.75
2023-03-30T00:55:02.783Z,78.95
2023-03-30T00:56:02.771Z,79.05
2023-03-30T00:57:02.868Z,78.95
2023-03-30T00:58:02.754Z,78.75
2023-03-30T00:59:02.756Z,79.66
2023-03-30T01:00:02.724Z,79.66
2023-03-30T01:01:03.040Z,79.66
2023-03-30T01:02:02.786Z,79.57
2023-03-30T01:03:02.793Z,79.57
2023-03-30T01:04:02.688Z,79.05
2023-03-30T01:05:02.658Z,78.85
2023-03-30T01:06:02.652Z,79.05
2023-03-30T01:07:02.627Z,79.36
2023-03-30T01:08:02.648Z,79.66
2023-03-30T01:09:02.610Z,79.16
2023-03-30T01:10:02.608Z,79.05
2023-03-30T01:11:02.972Z,79.05
2023-03-30T01:12:02.561Z,79.25
2023-03-30T01:13:02.559Z,79.16
2023-03-30T01:14:02.558Z,79.05
2023-03-30T01:15:02.534Z,78.64
2023-03-30T01:16:02.658Z,78.85
2023-03-30T01:17:02.524Z,78.75
2023-03-30T01:18:02.532Z,77.69
2023-03-30T01:19:02.478Z,77.89
2023-03-30T01:20:02.471Z,77.89
2023-03-30T01:21:02.914Z,77.59
2023-03-30T01:22:02.446Z,77.48
2023-03-30T01:23:02.458Z,77.25
2023-03-30T01:24:02.444Z,77.25
2023-03-30T01:25:02.386Z,77.45
2023-03-30T01:26:02.385Z,77.04
2023-03-30T01:27:02.381Z,76.93
2023-03-30T01:28:02.362Z,77.14
2023-03-30T01:29:02.370Z,77.14
2023-03-30T01:30:02.363Z,77.34
2023-03-30T01:31:02.508Z,77.25
2023-03-30T01:32:02.317Z,77.25
2023-03-30T01:33:02.375Z,77.34
2023-03-30T01:34:02.284Z,77.25
2023-03-30T01:35:02.399Z,77.14
2023-03-30T01:36:02.291Z,77.25
2023-03-30T01:37:02.252Z,77.65
2023-03-30T01:38:02.230Z,77.65
2023-03-30T01:39:02.214Z,77.86
2023-03-30T01:40:02.244Z,77.86
2023-03-30T01:41:02.462Z,78.16
2023-03-30T01:42:02.184Z,78.16
2023-03-30T01:43:02.178Z,78.27
2023-03-30T01:44:02.180Z,78.06
2023-03-30T01:45:02.152Z,78.47
2023-03-30T01:46:02.143Z,78.47
2023-03-30T01:47:02.130Z,78.47
2023-03-30T01:48:02.144Z,78.57
2023-03-30T01:49:02.096Z,78.27
2023-03-30T01:50:02.082Z,77.75
2023-03-30T01:51:02.275Z,77.86
2023-03-30T01:52:02.059Z,78.06
2023-03-30T01:53:02.040Z,78.06
2023-03-30T01:54:02.045Z,77.96
2023-03-30T01:55:02.021Z,78.16
2023-03-30T01:56:02.035Z,77.75
2023-03-30T01:57:02.011Z,77.86
2023-03-30T01:58:01.975Z,77.86
2023-03-30T01:59:01.978Z,77.75
2023-03-30T02:00:01.967Z,77.55
2023-03-30T02:01:02.273Z,77.75
2023-03-30T02:02:01.981Z,78.16
2023-03-30T02:03:01.998Z,78.47
2023-03-30T02:04:02.087Z,78.57
2023-03-30T02:05:01.894Z,78.71
2023-03-30T02:06:01.882Z,78.71
2023-03-30T02:07:01.901Z,78.71
2023-03-30T02:08:01.861Z,78.81
2023-03-30T02:09:01.836Z,78.81
2023-03-30T02:10:01.838Z,78.91
2023-03-30T02:11:02.162Z,79.12
2023-03-30T02:12:01.832Z,78.91
2023-03-30T02:13:01.825Z,79.12
2023-03-30T02:14:01.799Z,79.32
2023-03-30T02:15:01.770Z,79.73
2023-03-30T02:16:01.772Z,80.34
2023-03-30T02:17:01.757Z,80.96
2023-03-30T02:18:01.800Z,81.46
2023-03-30T02:19:01.731Z,81.77
2023-03-30T02:20:01.715Z,82.08
2023-03-30T02:21:01.865Z,82.59
2023-03-30T02:22:01.674Z,83.24
2023-03-30T02:23:01.666Z,83.65
2023-03-30T02:24:01.650Z,84.16
2023-03-30T02:25:01.633Z,85.08
2023-03-30T02:26:01.653Z,86.20
2023-03-30T02:27:01.628Z,87.63
2023-03-30T02:28:01.621Z,87.88
2023-03-30T02:29:01.585Z,87.57
2023-03-30T02:30:01.583Z,87.88
2023-03-30T02:31:01.765Z,88.59
2023-03-30T02:32:01.652Z,89.31
2023-03-30T02:33:01.594Z,89.35
2023-03-30T02:34:01.514Z,90.17
2023-03-30T02:35:01.524Z,90.37
2023-03-30T02:36:01.521Z,90.68
2023-03-30T02:37:01.484Z,91.09
2023-03-30T02:38:01.472Z,92.42
2023-03-30T02:39:01.463Z,92.52
2023-03-30T02:40:01.434Z,92.97
2023-03-30T02:41:01.536Z,93.79
2023-03-30T02:42:01.423Z,94.71
2023-03-30T02:43:01.420Z,94.92
2023-03-30T02:44:01.450Z,95.02
2023-03-30T02:45:01.379Z,95.22
2023-03-30T02:46:01.448Z,95.43
2023-03-30T02:47:01.354Z,95.98
2023-03-30T02:48:01.414Z,96.29
2023-03-30T02:49:01.330Z,96.49
2023-03-30T02:50:01.358Z,96.49
2023-03-30T02:51:01.425Z,96.70
2023-03-30T02:52:01.292Z,96.80
2023-03-30T02:53:01.279Z,96.91
2023-03-30T02:54:01.270Z,97.11
2023-03-30T02:55:01.259Z,97.36
2023-03-30T02:56:01.245Z,97.56
2023-03-30T02:57:01.244Z,97.66
2023-03-30T02:58:01.226Z,97.77
2023-03-30T02:59:01.211Z,97.97
2023-03-30T03:00:01.233Z,98.28
2023-03-30T03:01:01.322Z,98.28
2023-03-30T03:02:01.219Z,98.38
2023-03-30T03:03:01.310Z,98.58
2023-03-30T03:04:01.138Z,98.69
2023-03-30T03:05:01.124Z,98.69
2023-03-30T03:06:01.106Z,98.94
2023-03-30T03:07:01.104Z,99.10
2023-03-30T03:08:01.077Z,99.20
2023-03-30T03:09:01.075Z,99.25
2023-03-30T03:10:01.067Z,99.66
2023-03-30T03:11:01.178Z,99.76
2023-03-30T03:12:01.031Z,99.76
2023-03-30T03:13:01.025Z,99.76
2023-03-30T03:14:01.006Z,99.76
2023-03-30T03:15:00.998Z,99.86
2023-03-30T03:16:03.663Z,99.99
2023-03-30T03:17:01.007Z,99.99
2023-03-30T03:18:01.004Z,99.99
2023-03-30T03:19:00.949Z,99.99
2023-03-30T03:20:00.922Z,99.99
2023-03-30T03:21:00.924Z,99.99
2023-03-30T03:22:00.907Z,99.99
2023-03-30T03:23:00.886Z,99.99
2023-03-30T03:24:00.872Z,99.99
2023-03-30T03:25:00.864Z,99.99
2023-03-30T03:26:00.854Z,99.99
2023-03-30T03:27:00.843Z,99.99
2023-03-30T03:28:00.830Z,99.99
2023-03-30T03:29:00.816Z,99.99
2023-03-30T03:30:00.817Z,99.99
2023-03-30T03:31:00.859Z,99.99
2023-03-30T03:32:00.800Z,99.99
2023-03-30T03:33:00.785Z,99.99
2023-03-30T03:34:00.742Z,99.99
2023-03-30T03:35:00.736Z,99.99
2023-03-30T03:36:00.773Z,99.99
2023-03-30T03:37:00.720Z,99.99
2023-03-30T03:38:00.714Z,99.99
2023-03-30T03:39:00.681Z,99.99
2023-03-30T03:40:00.680Z,99.99
2023-03-30T03:41:00.668Z,99.99
2023-03-30T03:42:00.639Z,99.99
2023-03-30T03:43:00.649Z,99.99
2023-03-30T03:44:00.622Z,99.99
2023-03-30T03:45:00.617Z,99.99
2023-03-30T03:46:00.638Z,99.99
2023-03-30T03:47:00.596Z,99.99
2023-03-30T03:48:00.687Z,99.99
2023-03-30T03:49:00.550Z,99.99
2023-03-30T03:50:00.541Z,99.99
2023-03-30T03:51:00.533Z,99.99
2023-03-30T03:52:00.522Z,99.99
2023-03-30T03:53:00.501Z,99.99
2023-03-30T03:54:00.483Z,99.99
2023-03-30T03:55:00.485Z,99.99
2023-03-30T03:56:00.480Z,99.99
2023-03-30T03:57:00.505Z,99.99
2023-03-30T03:58:00.435Z,99.99
2023-03-30T03:59:00.431Z,99.99
2023-03-30T04:00:00.409Z,99.99
2023-03-30T04:01:00.475Z,99.99
2023-03-30T04:02:00.437Z,99.99
2023-03-30T04:03:00.398Z,99.99
2023-03-30T04:04:00.397Z,99.99
2023-03-30T04:05:00.446Z,99.99
2023-03-30T04:06:00.382Z,99.99
2023-03-30T04:07:00.323Z,99.99
2023-03-30T04:08:00.316Z,99.99
2023-03-30T04:09:00.303Z,99.99
2023-03-30T04:10:00.295Z,99.99
2023-03-30T04:11:00.273Z,99.99
2023-03-30T04:12:00.258Z,99.99
2023-03-30T04:13:00.240Z,99.99
2023-03-30T04:14:00.235Z,99.99
2023-03-30T04:15:00.213Z,99.99
2023-03-30T04:16:00.261Z,99.99
2023-03-30T04:17:00.195Z,99.99
2023-03-30T04:18:00.233Z,99.99
2023-03-30T04:19:00.203Z,99.99
2023-03-30T04:20:00.188Z,99.99
2023-03-30T04:21:00.153Z,99.99
2023-03-30T04:22:00.176Z,99.99
2023-03-30T04:23:00.121Z,99.99
2023-03-30T04:24:00.159Z,99.99
2023-03-30T04:25:00.119Z,99.99
2023-03-30T04:26:00.125Z,99.99
2023-03-30T04:27:00.096Z,99.99
2023-03-30T04:28:00.048Z,99.99
2023-03-30T04:29:00.046Z,99.99
2023-03-30T04:30:00.033Z,99.99
2023-03-30T04:31:00.042Z,99.99
2023-03-30T04:32:00.022Z,99.99
2023-03-30T04:33:00.015Z,99.99
2023-03-30T04:33:59.968Z,99.99
2023-03-30T04:34:59.962Z,99.99
2023-03-30T04:35:59.996Z,99.99
2023-03-30T04:36:59.954Z,99.99
2023-03-30T04:37:59.926Z,99.99
2023-03-30T04:38:59.909Z,99.99
2023-03-30T04:39:59.919Z,99.99
2023-03-30T04:40:59.888Z,99.99
2023-03-30T04:41:59.880Z,99.99
2023-03-30T04:42:59.853Z,99.99
2023-03-30T04:43:59.848Z,99.99
2023-03-30T04:44:59.828Z,99.99
2023-03-30T04:45:59.904Z,99.99
2023-03-30T04:46:59.806Z,99.99
2023-03-30T04:47:59.799Z,99.99
2023-03-30T04:48:59.784Z,99.99
2023-03-30T04:49:59.771Z,99.99
2023-03-30T04:50:59.756Z,99.99
2023-03-30T04:51:59.764Z,99.99
2023-03-30T04:52:59.739Z,99.99
2023-03-30T04:53:59.750Z,99.99
2023-03-30T04:54:59.707Z,99.99
2023-03-30T04:55:59.694Z,99.99
2023-03-30T04:56:59.726Z,99.99
2023-03-30T04:57:59.666Z,99.99
2023-03-30T04:58:59.674Z,99.99
2023-03-30T04:59:59.661Z,99.99
2023-03-30T05:00:59.660Z,99.99
2023-03-30T05:01:59.740Z,99.99
2023-03-30T05:02:59.730Z,99.99
2023-03-30T05:03:59.595Z,99.99
2023-03-30T05:04:59.595Z,99.99
2023-03-30T05:05:59.554Z,99.99
2023-03-30T05:06:59.551Z,99.99
2023-03-30T05:07:59.564Z,99.99
2023-03-30T05:08:59.518Z,99.99
2023-03-30T05:09:59.514Z,99.99
2023-03-30T05:10:59.501Z,99.99
2023-03-30T05:11:59.480Z,99.99
2023-03-30T05:12:59.473Z,99.99
2023-03-30T05:13:59.459Z,99.99
2023-03-30T05:14:59.448Z,99.99
2023-03-30T05:15:59.456Z,99.99
2023-03-30T05:16:59.467Z,99.99
2023-03-30T05:17:59.471Z,99.99
2023-03-30T05:18:59.406Z,99.99
2023-03-30T05:19:59.400Z,99.99
2023-03-30T05:20:59.388Z,99.99
2023-03-30T05:21:59.361Z,99.99
2023-03-30T05:22:59.337Z,99.99
2023-03-30T05:23:59.361Z,99.99
2023-03-30T05:24:59.308Z,99.99
2023-03-30T05:25:59.321Z,99.99
2023-03-30T05:26:59.282Z,99.99
2023-03-30T05:27:59.283Z,99.99
2023-03-30T05:28:59.266Z,99.99
2023-03-30T05:29:59.269Z,99.99
2023-03-30T05:30:59.286Z,99.99
2023-03-30T05:31:59.226Z,99.99
2023-03-30T05:32:59.237Z,99.99
2023-03-30T05:33:59.202Z,99.99
2023-03-30T05:34:59.185Z,99.99
2023-03-30T05:35:59.213Z,99.99
2023-03-30T05:36:59.162Z,99.99
2023-03-30T05:37:59.150Z,99.99
2023-03-30T05:38:59.126Z,99.99
2023-03-30T05:39:59.137Z,99.99
2023-03-30T05:40:59.107Z,99.99
2023-03-30T05:41:59.083Z,99.99
2023-03-30T05:42:59.090Z,99.99
2023-03-30T05:43:59.076Z,99.99
2023-03-30T05:44:59.053Z,99.99
2023-03-30T05:45:59.081Z,99.99
2023-03-30T05:46:59.039Z,99.99
2023-03-30T05:47:59.091Z,99.99
2023-03-30T05:48:59.012Z,99.99
2023-03-30T05:49:58.997Z,99.99
2023-03-30T05:51:01.084Z,99.99
2023-03-30T05:51:58.962Z,99.99
2023-03-30T05:52:58.947Z,99.99
2023-03-30T05:53:58.935Z,99.99
2023-03-30T05:54:58.938Z,99.99
2023-03-30T05:55:58.940Z,99.99
2023-03-30T05:56:58.947Z,99.99
2023-03-30T05:57:58.888Z,99.99
2023-03-30T05:58:58.868Z,99.99
2023-03-30T05:59:58.851Z,99.99
2023-03-30T06:00:58.843Z,99.99
2023-03-30T06:01:58.834Z,99.99
2023-03-30T06:02:58.840Z,99.99
2023-03-30T06:03:58.947Z,99.99
2023-03-30T06:04:58.865Z,99.99
2023-03-30T06:05:58.799Z,99.99
2023-03-30T06:06:58.766Z,99.99
2023-03-30T06:07:58.747Z,99.99
2023-03-30T06:08:58.742Z,99.99
2023-03-30T06:09:58.736Z,99.99
2023-03-30T06:10:58.709Z,99.99
2023-03-30T06:11:58.728Z,99.99
2023-03-30T06:12:58.688Z,99.99
2023-03-30T06:13:58.828Z,99.99
2023-03-30T06:14:58.657Z,99.99
2023-03-30T06:16:00.258Z,99.99
2023-03-30T06:16:58.709Z,99.99
2023-03-30T06:17:58.654Z,99.99
2023-03-30T06:18:58.617Z,99.99
2023-03-30T06:19:58.598Z,99.99
2023-03-30T06:20:58.586Z,99.99
2023-03-30T06:21:58.587Z,99.99
2023-03-30T06:22:58.581Z,99.99
2023-03-30T06:23:58.621Z,99.99
2023-03-30T06:24:58.531Z,99.99
2023-03-30T06:25:58.518Z,99.99
2023-03-30T06:26:58.507Z,99.99
2023-03-30T06:27:58.524Z,99.99
2023-03-30T06:28:58.482Z,99.99
2023-03-30T06:29:58.474Z,99.99
2023-03-30T06:30:58.458Z,99.99
2023-03-30T06:31:58.478Z,99.99
2023-03-30T06:32:58.456Z,99.99
2023-03-30T06:33:58.405Z,99.99
2023-03-30T06:34:58.405Z,99.99
2023-03-30T06:35:58.430Z,99.99
2023-03-30T06:36:58.373Z,99.99
2023-03-30T06:37:58.357Z,99.99
2023-03-30T06:38:58.351Z,99.99
2023-03-30T06:39:58.339Z,99.99
2023-03-30T06:40:58.318Z,99.99
2023-03-30T06:41:58.318Z,99.99
2023-03-30T06:42:58.298Z,99.99
2023-03-30T06:43:58.315Z,99.99
2023-03-30T06:44:58.276Z,99.99
2023-03-30T06:45:58.377Z,99.99
2023-03-30T06:46:58.243Z,99.99
2023-03-30T06:47:58.257Z,99.99
2023-03-30T06:48:58.221Z,99.99
2023-03-30T06:49:58.406Z,99.99
2023-03-30T06:50:58.193Z,99.99
2023-03-30T06:51:58.798Z,99.99
2023-03-30T06:52:58.160Z,99.99
2023-03-30T06:53:58.147Z,99.99
2023-03-30T06:54:58.153Z,99.99
2023-03-30T06:55:58.140Z,99.99
2023-03-30T06:56:58.176Z,99.99
2023-03-30T06:57:58.103Z,99.99
2023-03-30T06:58:58.096Z,99.99
2023-03-30T06:59:58.111Z,99.99
2023-03-30T07:00:58.129Z,99.99
2023-03-30T07:01:58.150Z,99.99
2023-03-30T07:02:58.106Z,99.99
2023-03-30T07:03:58.038Z,99.99
2023-03-30T07:04:58.012Z,99.99
2023-03-30T07:05:58.004Z,99.99
2023-03-30T07:06:57.986Z,99.99
2023-03-30T07:07:57.978Z,99.99
2023-03-30T07:08:57.956Z,99.99
2023-03-30T07:09:57.948Z,98.52
2023-03-30T07:10:57.944Z,96.31
2023-03-30T07:11:57.927Z,95.44
2023-03-30T07:12:57.909Z,96.05
2023-03-30T07:13:57.890Z,96.26
2023-03-30T07:14:57.878Z,96.51
2023-03-30T07:15:57.895Z,96.81
2023-03-30T07:16:57.915Z,96.71
2023-03-30T07:17:57.898Z,97.02
2023-03-30T07:18:57.826Z,96.92
2023-03-30T07:19:57.831Z,96.77
2023-03-30T07:20:57.807Z,96.67
2023-03-30T07:21:57.804Z,96.30
2023-03-30T07:22:57.786Z,96.97
2023-03-30T07:23:57.763Z,95.67
2023-03-30T07:24:57.770Z,92.84
2023-03-30T07:25:57.738Z,88.06
2023-03-30T07:26:57.728Z,82.66
2023-03-30T07:27:57.726Z,80.43
2023-03-30T07:28:57.696Z,79.74
2023-03-30T07:30:04.622Z,79.07
2023-03-30T07:30:58.848Z,79.27
2023-03-30T07:31:57.724Z,79.13
2023-03-30T07:32:58.654Z,77.03
2023-03-30T07:33:57.640Z,76.63
2023-03-30T07:34:57.619Z,77.34
2023-03-30T07:35:57.663Z,76.87
2023-03-30T07:36:57.601Z,76.90
2023-03-30T07:38:03.269Z,77.04
2023-03-30T07:38:58.639Z,78.09
2023-03-30T07:39:57.594Z,79.04
2023-03-30T07:40:57.547Z,78.88
2023-03-30T07:41:57.526Z,79.02
2023-03-30T07:42:57.520Z,79.97
2023-03-30T07:43:57.518Z,82.71
2023-03-30T07:44:57.493Z,84.48
2023-03-30T07:45:57.558Z,85.29
2023-03-30T07:46:57.460Z,84.28
2023-03-30T07:47:57.514Z,85.19
2023-03-30T07:48:57.438Z,85.90
2023-03-30T07:49:57.435Z,86.61
2023-03-30T07:50:57.412Z,87.12
2023-03-30T07:51:57.402Z,87.57
2023-03-30T07:52:57.394Z,88.08
2023-03-30T07:53:57.373Z,88.39
2023-03-30T07:54:57.364Z,88.79
2023-03-30T07:55:57.353Z,88.89
2023-03-30T07:56:57.380Z,88.93
2023-03-30T07:57:57.332Z,88.73
2023-03-30T07:58:58.968Z,87.71
2023-03-30T07:59:57.306Z,88.06
2023-03-30T08:00:57.297Z,88.61
2023-03-30T08:01:57.274Z,89.53
2023-03-30T08:02:57.333Z,89.73
2023-03-30T08:03:57.352Z,90.24
2023-03-30T08:04:57.490Z,90.44
2023-03-30T08:05:57.233Z,91.16
2023-03-30T08:06:57.212Z,91.26
2023-03-30T08:07:57.194Z,91.26
2023-03-30T08:08:57.194Z,91.26
2023-03-30T08:09:57.162Z,90.85
2023-03-30T08:10:57.163Z,90.24
2023-03-30T08:11:57.146Z,87.49
2023-03-30T08:12:57.136Z,87.59
2023-03-30T08:13:57.120Z,88.57
2023-03-30T08:14:57.109Z,86.53
2023-03-30T08:15:57.156Z,83.44
2023-03-30T08:16:57.081Z,83.95
2023-03-30T08:17:57.106Z,82.62
2023-03-30T08:18:57.062Z,81.87
2023-03-30T08:19:57.069Z,82.18
2023-03-30T08:20:57.032Z,83.95
2023-03-30T08:21:57.189Z,84.62
2023-03-30T08:22:57.000Z,84.01
2023-03-30T08:23:56.993Z,82.32
2023-03-30T08:24:56.978Z,82.93
2023-03-30T08:25:56.960Z,83.74
2023-03-30T08:26:56.956Z,84.86
2023-03-30T08:27:56.926Z,84.45
2023-03-30T08:28:56.938Z,85.17
2023-03-30T08:29:56.944Z,85.58
2023-03-30T08:30:56.927Z,86.39
2023-03-30T08:31:56.977Z,85.58
2023-03-30T08:32:56.977Z,83.74
2023-03-30T08:33:56.875Z,84.42
2023-03-30T08:34:56.902Z,84.72
2023-03-30T08:35:56.994Z,82.99
2023-03-30T08:36:56.925Z,83.40
2023-03-30T08:37:56.799Z,82.38
2023-03-30T08:38:56.812Z,81.46
2023-03-30T08:39:56.791Z,81.87
2023-03-30T08:40:56.779Z,80.72
2023-03-30T08:41:56.752Z,80.11
2023-03-30T08:42:56.736Z,78.14
2023-03-30T08:43:56.733Z,76.86
2023-03-30T08:44:56.708Z,75.70
2023-03-30T08:45:56.709Z,75.29
2023-03-30T08:46:56.687Z,76.58
2023-03-30T08:47:56.805Z,75.16
2023-03-30T08:48:56.670Z,74.14
2023-03-30T08:49:56.644Z,73.83
2023-03-30T08:50:56.666Z,74.04
2023-03-30T08:51:56.643Z,73.80
2023-03-30T08:52:56.625Z,72.48
2023-03-30T08:53:56.599Z,73.57
2023-03-30T08:54:56.579Z,73.50
2023-03-30T08:55:56.571Z,71.36
2023-03-30T08:56:56.598Z,71.26
2023-03-30T08:57:56.547Z,72.41
2023-03-30T08:58:56.533Z,73.02
2023-03-30T08:59:56.531Z,73.63
2023-03-30T09:00:56.556Z,74.24
2023-03-30T09:01:56.548Z,73.97
2023-03-30T09:02:56.568Z,74.88
2023-03-30T09:03:56.495Z,75.40
2023-03-30T09:04:56.493Z,76.10
2023-03-30T09:05:56.443Z,76.31
2023-03-30T09:06:56.426Z,75.80
2023-03-30T09:07:56.453Z,76.86
2023-03-30T09:08:56.407Z,77.97
2023-03-30T09:09:56.387Z,78.68
2023-03-30T09:10:56.385Z,79.60
2023-03-30T09:11:56.375Z,80.24
2023-03-30T09:12:56.374Z,81.26
2023-03-30T09:13:56.345Z,81.26
2023-03-30T09:14:56.340Z,81.91
2023-03-30T09:15:56.322Z,82.93
2023-03-30T09:16:56.346Z,83.54
2023-03-30T09:17:56.337Z,84.50
2023-03-30T09:18:56.289Z,85.11
2023-03-30T09:19:56.281Z,85.41
2023-03-30T09:20:56.266Z,86.06
2023-03-30T09:21:56.239Z,86.77
2023-03-30T09:22:56.232Z,87.18
2023-03-30T09:23:56.246Z,87.43
2023-03-30T09:24:56.219Z,88.14
2023-03-30T09:25:56.190Z,88.85
2023-03-30T09:26:56.190Z,89.67
2023-03-30T09:27:56.165Z,90.42
2023-03-30T09:28:56.154Z,90.63
2023-03-30T09:29:56.137Z,90.63
2023-03-30T09:30:56.129Z,91.69
2023-03-30T09:31:56.211Z,92.20
2023-03-30T09:32:56.151Z,92.76
2023-03-30T09:33:56.093Z,92.76
2023-03-30T09:34:56.068Z,93.26
2023-03-30T09:35:56.075Z,93.82
2023-03-30T09:36:56.070Z,94.12
2023-03-30T09:37:56.060Z,93.92
2023-03-30T09:38:56.071Z,94.68
2023-03-30T09:39:56.040Z,95.39
2023-03-30T09:40:56.001Z,95.64
2023-03-30T09:41:55.990Z,95.34
2023-03-30T09:42:55.970Z,94.82
2023-03-30T09:43:55.962Z,95.59
2023-03-30T09:44:55.960Z,96.41
2023-03-30T09:45:55.999Z,96.81
2023-03-30T09:46:55.931Z,97.33
2023-03-30T09:47:55.941Z,97.83
2023-03-30T09:48:55.894Z,98.39
2023-03-30T09:49:55.890Z,98.70
2023-03-30T09:50:55.882Z,99.11
2023-03-30T09:51:55.875Z,99.52
2023-03-30T09:52:55.857Z,99.62
2023-03-30T09:53:55.843Z,99.82
2023-03-30T09:54:55.835Z,99.72
2023-03-30T09:55:55.840Z,99.77
2023-03-30T09:56:55.861Z,99.82
2023-03-30T09:57:55.783Z,99.98
2023-03-30T09:58:55.772Z,99.99
2023-03-30T09:59:55.791Z,99.99
2023-03-30T10:00:55.738Z,99.99
2023-03-30T10:01:55.786Z,99.99
2023-03-30T10:02:55.999Z,99.99
2023-03-30T10:03:55.824Z,99.99
2023-03-30T10:04:55.764Z,99.99
2023-03-30T10:05:55.678Z,99.99
2023-03-30T10:06:55.686Z,99.99
2023-03-30T10:07:55.676Z,99.99
2023-03-30T10:08:55.671Z,99.99
2023-03-30T10:09:55.676Z,99.99
2023-03-30T10:10:55.627Z,99.99
2023-03-30T10:11:55.638Z,99.99
2023-03-30T10:12:55.594Z,99.99
2023-03-30T10:13:55.571Z,99.99
2023-03-30T10:14:55.578Z,99.99
2023-03-30T10:15:55.644Z,99.99
2023-03-30T10:16:55.539Z,99.99
2023-03-30T10:17:55.603Z,99.99
2023-03-30T10:18:55.513Z,99.99
2023-03-30T10:20:03.818Z,99.99
2023-03-30T10:20:56.511Z,99.99
2023-03-30T10:21:55.488Z,99.99
2023-03-30T10:22:55.481Z,99.99
2023-03-30T10:23:55.456Z,99.99
2023-03-30T10:24:55.788Z,99.99
2023-03-30T10:25:55.434Z,99.99
2023-03-30T10:26:55.419Z,99.99
2023-03-30T10:27:55.433Z,99.99
2023-03-30T10:28:55.390Z,99.99
2023-03-30T10:29:55.367Z,99.99
2023-03-30T10:30:55.384Z,99.99
2023-03-30T10:31:55.441Z,99.99
2023-03-30T10:32:55.413Z,99.99
2023-03-30T10:33:55.312Z,99.99
2023-03-30T10:34:55.308Z,99.99
2023-03-30T10:35:55.379Z,99.99
2023-03-30T10:36:55.293Z,99.99
2023-03-30T10:37:55.276Z,99.99
2023-03-30T10:38:55.251Z,99.99
2023-03-30T10:39:55.240Z,99.99
2023-03-30T10:40:55.253Z,99.99
2023-03-30T10:41:56.783Z,99.99
2023-03-30T10:42:55.240Z,99.99
2023-03-30T10:43:55.237Z,99.99
2023-03-30T10:44:55.182Z,99.99
2023-03-30T10:45:55.182Z,99.99
2023-03-30T10:46:55.174Z,99.99
2023-03-30T10:47:56.876Z,99.99
2023-03-30T10:48:55.132Z,99.99
2023-03-30T10:49:55.110Z,99.99
2023-03-30T10:50:55.104Z,99.99
2023-03-30T10:51:55.088Z,99.99
2023-03-30T10:52:59.191Z,99.99
2023-03-30T10:53:56.057Z,99.82
2023-03-30T10:54:55.051Z,99.93
2023-03-30T10:55:55.034Z,99.98
2023-03-30T10:56:55.033Z,99.99
2023-03-30T10:57:55.004Z,99.99
2023-03-30T10:58:54.990Z,99.99
2023-03-30T10:59:55.909Z,99.99
2023-03-30T11:00:55.079Z,99.99
2023-03-30T11:01:54.969Z,99.99
2023-03-30T11:02:54.986Z,99.99
2023-03-30T11:03:54.978Z,99.72
2023-03-30T11:04:54.924Z,99.93
2023-03-30T11:05:54.906Z,99.99
2023-03-30T11:06:54.896Z,99.99
2023-03-30T11:07:54.876Z,99.99
2023-03-30T11:08:54.886Z,99.93
2023-03-30T11:09:54.869Z,99.99
2023-03-30T11:10:54.845Z,99.72
2023-03-30T11:11:54.836Z,99.82
2023-03-30T11:12:54.837Z,99.72
2023-03-30T11:13:54.808Z,99.72
2023-03-30T11:14:54.798Z,99.82
2023-03-30T11:15:54.823Z,99.99
2023-03-30T11:16:54.782Z,99.99
2023-03-30T11:17:54.777Z,99.99
2023-03-30T11:18:54.782Z,99.99
2023-03-30T11:19:54.721Z,99.68
2023-03-30T11:20:54.707Z,99.68
2023-03-30T11:21:54.701Z,99.68
2023-03-30T11:22:54.688Z,99.47
2023-03-30T11:23:54.695Z,99.37
2023-03-30T11:24:54.674Z,99.01
2023-03-30T11:25:54.648Z,99.21
2023-03-30T11:26:54.637Z,99.31
2023-03-30T11:27:56.250Z,99.52
2023-03-30T11:28:54.622Z,99.62
2023-03-30T11:29:54.601Z,99.62
2023-03-30T11:30:54.587Z,99.72
2023-03-30T11:31:54.649Z,99.82
2023-03-30T11:32:54.625Z,99.99
2023-03-30T11:33:54.539Z,99.99
2023-03-30T11:34:54.525Z,99.99
2023-03-30T11:35:54.526Z,99.99
2023-03-30T11:36:54.499Z,99.99
2023-03-30T11:37:54.496Z,99.99
2023-03-30T11:38:54.495Z,99.72
2023-03-30T11:39:54.459Z,99.52
2023-03-30T11:40:54.453Z,99.41
2023-03-30T11:41:54.440Z,99.52
2023-03-30T11:42:54.430Z,99.82
2023-03-30T11:43:54.409Z,99.93
2023-03-30T11:44:54.406Z,99.82
2023-03-30T11:45:54.400Z,99.62
2023-03-30T11:46:54.791Z,99.82
2023-03-30T11:47:54.432Z,99.72
2023-03-30T11:48:54.361Z,99.41
2023-03-30T11:49:54.332Z,99.52
2023-03-30T11:50:54.327Z,99.47
2023-03-30T11:51:54.324Z,99.57
2023-03-30T11:52:54.306Z,99.47
2023-03-30T11:53:54.297Z,99.06
2023-03-30T11:55:03.018Z,99.47
2023-03-30T11:55:55.307Z,99.52
2023-03-30T11:56:54.270Z,99.43
2023-03-30T11:57:54.258Z,99.32
2023-03-30T11:58:54.237Z,99.32
2023-03-30T11:59:54.208Z,99.22
2023-03-30T12:00:54.193Z,99.43
2023-03-30T12:01:54.191Z,99.52
2023-03-30T12:02:54.360Z,99.52
2023-03-30T12:03:54.475Z,99.22
2023-03-30T12:04:54.186Z,98.61
2023-03-30T12:05:54.149Z,97.94
2023-03-30T12:06:54.120Z,96.41
2023-03-30T12:07:54.112Z,95.89
2023-03-30T12:08:54.093Z,96.51
2023-03-30T12:09:54.084Z,96.61
2023-03-30T12:10:54.058Z,96.71
2023-03-30T12:11:54.063Z,96.61
2023-03-30T12:12:54.061Z,96.51
2023-03-30T12:13:54.024Z,96.45
2023-03-30T12:14:54.012Z,97.16
2023-03-30T12:15:54.064Z,96.75
2023-03-30T12:16:54.030Z,96.04
2023-03-30T12:17:54.011Z,96.25
2023-03-30T12:18:53.968Z,95.63
2023-03-30T12:19:56.404Z,95.32
2023-03-30T12:20:53.947Z,94.87
2023-03-30T12:21:53.939Z,95.28
2023-03-30T12:22:53.907Z,95.54
2023-03-30T12:23:53.908Z,95.44
2023-03-30T12:24:53.883Z,96.01
2023-03-30T12:25:53.874Z,95.60
2023-03-30T12:27:53.858Z,95.35
2023-03-30T12:29:32.706Z,95.10
2023-03-30T12:30:01.494Z,94.90
2023-03-30T12:30:54.864Z,95.00
2023-03-30T12:31:53.841Z,95.00
2023-03-30T12:32:53.819Z,95.10
2023-03-30T12:33:53.764Z,95.20
2023-03-30T12:34:53.750Z,95.20
2023-03-30T12:35:53.803Z,95.00
2023-03-30T12:36:53.724Z,94.49
2023-03-30T12:37:53.726Z,94.08
2023-03-30T12:38:53.710Z,94.18
2023-03-30T12:39:53.703Z,94.38
2023-03-30T12:40:53.691Z,93.88
2023-03-30T12:41:55.952Z,93.67
2023-03-30T12:42:53.657Z,93.47
2023-03-30T12:43:53.643Z,91.27
2023-03-30T12:44:53.640Z,91.27
2023-03-30T12:45:53.654Z,90.86
2023-03-30T12:46:53.593Z,90.96
2023-03-30T12:47:53.622Z,92.29
2023-03-30T12:48:53.578Z,92.59
2023-03-30T12:49:53.565Z,92.49
2023-03-30T12:50:53.545Z,92.49
2023-03-30T12:51:53.556Z,93.31
2023-03-30T12:52:53.517Z,93.92